Time;durP1;ratioP1;P1;durP2;ratioP2;P2;SDS_P1;SDS_P2;PMS_P1;PMS_P2;Temp;Humidity;BMP_temperature;BMP_pressure;BME280_temperature;BME280_humidity;BME280_pressure;Samples;Min_cycle;Max_cycle;Signal;HPM_P1;HPM_P2
2023/10/05 00:00:38;;;;;;;3.17;2.20;;;;;;;11.28;100.00;97539.56;5043512;28;20297;-52
2023/10/05 00:03:05;;;;;;;3.37;2.57;;;;;;;11.27;100.00;97540.53;5044069;28;20231;-53
2023/10/05 00:05:35;;;;;;;4.93;2.63;;;;;;;11.26;100.00;97550.31;5044147;28;20208;-52
2023/10/05 00:08:03;;;;;;;3.47;2.70;;;;;;;11.23;100.00;97547.88;5043896;28;20206;-51
2023/10/05 00:10:30;;;;;;;5.03;2.53;;;;;;;11.15;100.00;97549.50;5044198;28;20208;-51
2023/10/05 00:13:04;;;;;;;3.93;2.53;;;;;;;11.17;100.00;97552.84;5043827;28;20200;-52
2023/10/05 00:15:32;;;;;;;3.37;2.77;;;;;;;11.18;100.00;97552.72;5043789;28;20204;-52
2023/10/05 00:17:59;;;;;;;2.90;2.60;;;;;;;11.27;100.00;97561.72;5044295;28;20211;-52
2023/10/05 00:20:31;;;;;;;3.60;2.73;;;;;;;11.32;100.00;97559.53;5044254;28;20214;-51
2023/10/05 00:23:00;;;;;;;5.97;2.87;;;;;;;11.39;100.00;97552.78;5045578;28;20203;-52
2023/10/05 00:25:27;;;;;;;4.13;2.70;;;;;;;11.32;100.00;97547.16;5044996;28;20208;-51
2023/10/05 00:27:55;;;;;;;3.23;2.70;;;;;;;11.27;100.00;97551.13;5043962;28;20211;-53
2023/10/05 00:30:23;;;;;;;5.53;3.07;;;;;;;11.24;100.00;97546.94;5044174;28;20219;-52
2023/10/05 00:32:55;;;;;;;3.20;2.90;;;;;;;11.26;100.00;97546.81;5043877;28;20628;-52
2023/10/05 00:35:26;;;;;;;2.93;2.50;;;;;;;11.31;100.00;97549.91;5043383;28;20296;-52
2023/10/05 00:37:55;;;;;;;3.00;2.70;;;;;;;11.30;100.00;97550.91;5043774;28;20199;-52
2023/10/05 00:40:34;;;;;;;4.07;2.90;;;;;;;11.27;100.00;97551.13;5043984;28;20207;-53
2023/10/05 00:43:08;;;;;;;4.83;3.13;;;;;;;11.28;100.00;97551.00;5043475;28;20200;-51
2023/10/05 00:45:38;;;;;;;4.47;2.97;;;;;;;11.25;100.00;97548.63;5043980;28;20203;-53
2023/10/05 00:48:13;;;;;;;4.50;3.10;;;;;;;11.28;100.00;97547.50;5043988;28;20235;-51
2023/10/05 00:50:39;;;;;;;3.23;2.27;;;;;;;11.20;100.00;97552.59;5042589;28;20214;-53
2023/10/05 00:53:08;;;;;;;3.53;2.67;;;;;;;11.25;100.00;97561.84;5043033;28;20633;-51
2023/10/05 00:55:35;;;;;;;3.73;2.73;;;;;;;11.18;100.00;97560.66;5043628;28;20210;-52
2023/10/05 00:58:05;;;;;;;3.23;2.80;;;;;;;11.21;100.00;97554.28;5042637;28;20210;-52
2023/10/05 01:00:43;;;;;;;5.00;3.13;;;;;;;11.16;100.00;97559.13;5043066;28;20227;-52
2023/10/05 01:03:22;;;;;;;3.67;2.40;;;;;;;11.09;100.00;97555.28;5043055;28;20211;-52
2023/10/05 01:06:01;;;;;;;6.23;2.63;;;;;;;11.08;100.00;97567.69;5042090;28;20204;-51
2023/10/05 01:08:32;;;;;;;3.77;2.87;;;;;;;11.11;100.00;97562.13;5043050;28;20195;-51
2023/10/05 01:11:01;;;;;;;3.23;2.90;;;;;;;11.12;100.00;97555.03;5042602;28;20196;-53
2023/10/05 01:13:31;;;;;;;3.13;2.77;;;;;;;11.05;100.00;97553.84;5042495;28;21421;-51
2023/10/05 01:15:59;;;;;;;5.13;2.70;;;;;;;10.97;100.00;97557.94;5042391;28;20203;-53
2023/10/05 01:18:29;;;;;;;3.87;2.97;;;;;;;10.93;100.00;97558.31;5042787;28;20199;-52
2023/10/05 01:20:57;;;;;;;3.60;2.30;;;;;;;10.94;100.00;97557.34;5042433;28;20269;-53
2023/10/05 01:23:34;;;;;;;2.63;2.43;;;;;;;10.92;100.00;97559.25;5042539;28;20208;-53
2023/10/05 01:26:01;;;;;;;2.77;2.47;;;;;;;10.95;100.00;97559.00;5042502;28;20210;-53
2023/10/05 01:28:27;;;;;;;5.90;2.73;;;;;;;10.91;100.00;97553.13;5042259;28;21370;-51
2023/10/05 01:30:55;;;;;;;5.43;2.70;;;;;;;10.88;100.00;97541.94;5042896;28;20199;-52
2023/10/05 01:33:22;;;;;;;5.10;3.00;;;;;;;10.90;100.00;97550.63;5042841;28;20243;-52
2023/10/05 01:35:50;;;;;;;5.40;2.70;;;;;;;10.82;100.00;97553.03;5042304;28;20203;-51
2023/10/05 01:38:18;;;;;;;2.60;2.40;;;;;;;10.83;100.00;97552.06;5043035;28;20591;-53
2023/10/05 01:40:50;;;;;;;4.20;2.90;;;;;;;10.79;100.00;97540.06;5043164;28;20211;-52
2023/10/05 01:43:17;;;;;;;2.80;2.60;;;;;;;10.73;100.00;97553.78;5044199;28;20553;-52
2023/10/05 01:45:45;;;;;;;3.87;2.70;;;;;;;10.79;100.00;97546.19;5045287;28;20204;-53
2023/10/05 01:48:14;;;;;;;3.33;2.60;;;;;;;10.75;100.00;97544.75;5043687;28;20231;-53
2023/10/05 01:50:44;;;;;;;5.20;2.90;;;;;;;10.69;100.00;97542.59;5048726;28;20235;-52
2023/10/05 01:53:15;;;;;;;5.50;2.83;;;;;;;10.66;100.00;97540.19;5054121;28;20294;-54
2023/10/05 01:55:44;;;;;;;4.40;2.60;;;;;;;10.67;100.00;97544.50;5044334;28;20716;-54
2023/10/05 01:58:22;;;;;;;3.73;2.50;;;;;;;10.64;100.00;97539.47;5046592;28;20203;-61
2023/10/05 02:00:49;;;;;;;2.93;2.73;;;;;;;10.71;100.00;97535.38;5042475;28;20237;-55
2023/10/05 02:03:19;;;;;;;3.20;2.90;;;;;;;10.66;100.00;97531.41;5042828;28;20891;-53
2023/10/05 02:05:47;;;;;;;2.83;2.60;;;;;;;10.61;100.00;97533.56;5042664;28;20256;-52
2023/10/05 02:08:14;;;;;;;2.60;2.40;;;;;;;10.61;100.00;97537.06;5041697;28;20204;-53
2023/10/05 02:10:46;;;;;;;3.47;2.80;;;;;;;10.60;100.00;97531.88;5041618;28;20211;-53
2023/10/05 02:13:13;;;;;;;3.20;2.90;;;;;;;10.59;100.00;97530.22;5041723;28;20191;-54
2023/10/05 02:15:40;;;;;;;3.33;2.93;;;;;;;10.56;100.00;97523.34;5041452;28;20203;-53
2023/10/05 02:18:17;;;;;;;4.83;2.80;;;;;;;10.55;100.00;97519.03;5043040;28;20208;-51
2023/10/05 02:20:47;;;;;;;3.17;2.60;;;;;;;10.54;100.00;97522.63;5041411;28;20277;-52
2023/10/05 02:23:25;;;;;;;3.53;2.60;;;;;;;10.46;100.00;97514.47;5040968;28;20230;-50
2023/10/05 02:25:56;;;;;;;3.27;2.60;;;;;;;10.42;100.00;97515.66;5041446;28;20203;-52
2023/10/05 02:28:26;;;;;;;2.80;2.30;;;;;;;10.38;100.00;97512.41;5040882;28;20320;-54
2023/10/05 02:30:54;;;;;;;4.07;2.90;;;;;;;10.44;100.00;97508.47;5041193;28;20222;-53
2023/10/05 02:33:24;;;;;;;2.60;2.40;;;;;;;10.37;100.00;97507.28;5040754;28;20629;-51
2023/10/05 02:35:55;;;;;;;3.57;2.63;;;;;;;10.39;100.00;97510.63;5041939;28;20203;-51
2023/10/05 02:38:22;;;;;;;3.37;2.70;;;;;;;10.31;100.00;97518.31;5042099;28;20203;-52
2023/10/05 02:40:54;;;;;;;3.30;2.60;;;;;;;10.26;100.00;97508.13;5041531;28;20202;-50
2023/10/05 02:43:27;;;;;;;5.80;2.80;;;;;;;10.24;100.00;97522.38;5041355;28;20234;-52
2023/10/05 02:45:58;;;;;;;4.53;2.90;;;;;;;10.23;100.00;97502.22;5041442;28;20584;-52
2023/10/05 02:48:25;;;;;;;2.67;2.43;;;;;;;10.22;100.00;97506.66;5045283;28;20200;-53
2023/10/05 02:50:52;;;;;;;3.43;3.13;;;;;;;10.19;100.00;97498.13;5045379;28;20207;-53
2023/10/05 02:53:22;;;;;;;6.27;2.83;;;;;;;10.17;100.00;97500.03;5045191;28;20204;-53
2023/10/05 02:55:51;;;;;;;5.93;2.77;;;;;;;10.19;100.00;97500.78;5044791;28;20208;-51
2023/10/05 02:58:18;;;;;;;2.93;2.33;;;;;;;10.26;100.00;97496.69;5045190;28;20207;-51
2023/10/05 03:00:45;;;;;;;3.83;3.10;;;;;;;10.25;100.00;97505.56;5045151;28;20230;-53
2023/10/05 03:03:14;;;;;;;3.83;3.13;;;;;;;10.23;100.00;97497.78;5044703;28;20232;-52
2023/10/05 03:05:41;;;;;;;3.20;2.70;;;;;;;10.24;100.00;97501.25;5044281;28;20226;-52
2023/10/05 03:08:09;;;;;;;9.30;3.17;;;;;;;10.25;100.00;97502.94;5045040;28;20300;-53
2023/10/05 03:10:36;;;;;;;4.87;2.93;;;;;;;10.27;100.00;97499.19;5044957;28;20214;-52
2023/10/05 03:13:02;;;;;;;3.17;2.87;;;;;;;10.27;100.00;97507.13;5044819;28;20570;-54
2023/10/05 03:15:29;;;;;;;3.63;2.90;;;;;;;10.29;100.00;97507.03;5044152;28;20207;-53
2023/10/05 03:17:57;;;;;;;2.97;2.67;;;;;;;10.20;100.00;97503.28;5045003;28;20234;-52
2023/10/05 03:20:28;;;;;;;3.53;2.73;;;;;;;10.20;100.00;97502.47;5044446;28;20207;-53
2023/10/05 03:22:55;;;;;;;2.90;2.70;;;;;;;10.28;100.00;97500.03;5044704;28;20239;-52
2023/10/05 03:25:23;;;;;;;3.17;2.87;;;;;;;10.32;100.00;97504.13;5044170;28;20295;-52
2023/10/05 03:27:49;;;;;;;3.13;2.83;;;;;;;10.31;100.00;97499.78;5044000;28;20212;-53
2023/10/05 03:30:16;;;;;;;4.00;2.70;;;;;;;10.35;100.00;97503.88;5043645;28;20628;-52
2023/10/05 03:32:43;;;;;;;3.10;2.80;;;;;;;10.34;100.00;97500.44;5044393;28;20196;-53
2023/10/05 03:35:10;;;;;;;4.93;2.60;;;;;;;10.34;100.00;97494.28;5043584;28;20210;-53
2023/10/05 03:37:41;;;;;;;3.40;3.10;;;;;;;10.28;100.00;97498.25;5044788;28;20539;-52
2023/10/05 03:40:19;;;;;;;4.83;2.83;;;;;;;10.28;100.00;97494.75;5044779;28;20227;-53
2023/10/05 03:42:47;;;;;;;3.40;2.70;;;;;;;10.26;100.00;97491.41;5044693;28;20552;-53
2023/10/05 03:45:16;;;;;;;3.73;2.50;;;;;;;10.23;100.00;97486.38;5043459;28;20590;-52
2023/10/05 03:47:43;;;;;;;3.63;2.73;;;;;;;10.22;100.00;97489.97;5044520;28;20207;-52
2023/10/05 03:50:16;;;;;;;4.80;2.80;;;;;;;10.17;100.00;97487.66;5043938;28;20483;-53
2023/10/05 03:52:45;;;;;;;5.53;3.10;;;;;;;10.21;100.00;97504.97;5044632;28;20203;-52
2023/10/05 03:55:12;;;;;;;5.73;3.03;;;;;;;10.25;100.00;97501.13;5044138;28;20206;-52
2023/10/05 03:57:38;;;;;;;3.33;3.03;;;;;;;10.26;100.00;97504.63;5043122;28;20204;-52
2023/10/05 04:00:22;;;;;;;3.87;3.07;;;;;;;10.20;100.00;97503.28;5043476;28;20239;-52
2023/10/05 04:02:49;;;;;;;4.67;2.77;;;;;;;10.22;100.00;97500.53;5043639;28;20295;-51
2023/10/05 04:05:18;;;;;;;4.30;3.13;;;;;;;10.25;100.00;97501.13;5043456;28;20649;-51
2023/10/05 04:07:47;;;;;;;4.33;3.17;;;;;;;10.28;100.00;97500.03;5043172;28;20642;-52
2023/10/05 04:10:20;;;;;;;4.67;3.07;;;;;;;10.28;100.00;97498.25;5043542;28;20284;-52
2023/10/05 04:12:48;;;;;;;5.13;3.07;;;;;;;10.25;100.00;97505.56;5043337;28;20195;-57
2023/10/05 04:15:18;;;;;;;3.93;2.70;;;;;;;10.23;100.00;97507.50;5043415;28;20607;-53
2023/10/05 04:17:48;;;;;;;5.77;3.40;;;;;;;10.28;100.00;97500.03;5044040;28;20199;-52
2023/10/05 04:20:19;;;;;;;5.03;3.10;;;;;;;10.30;100.00;97500.78;5044414;28;20214;-53
2023/10/05 04:22:49;;;;;;;3.40;3.10;;;;;;;10.32;100.00;97502.34;5044141;28;20564;-51
2023/10/05 04:25:17;;;;;;;4.63;2.97;;;;;;;10.34;100.00;97504.88;5044875;28;20212;-52
2023/10/05 04:27:46;;;;;;;6.30;2.80;;;;;;;10.27;100.00;97498.38;5044364;28;20294;-53
2023/10/05 04:30:17;;;;;;;5.37;2.90;;;;;;;10.26;100.00;97496.69;5043363;28;20204;-52
2023/10/05 04:32:43;;;;;;;4.30;3.47;;;;;;;10.25;100.00;97513.50;5044072;28;20189;-52
2023/10/05 04:35:26;;;;;;;5.73;3.47;;;;;;;10.28;100.00;97510.63;5042811;28;21454;-53
2023/10/05 04:37:54;;;;;;;4.13;3.47;;;;;;;10.33;100.00;97508.47;5044332;28;20339;-51
2023/10/05 04:40:24;;;;;;;4.97;3.60;;;;;;;10.38;100.00;97501.03;5043866;28;20635;-51
2023/10/05 04:42:51;;;;;;;4.50;3.50;;;;;;;10.41;100.00;97508.72;5044153;28;20258;-52
2023/10/05 04:45:20;;;;;;;5.10;3.77;;;;;;;10.41;100.00;97508.72;5043277;28;20195;-53
2023/10/05 04:47:48;;;;;;;6.00;3.77;;;;;;;10.42;100.00;97503.28;5043313;28;20265;-51
2023/10/05 04:50:15;;;;;;;5.57;3.40;;;;;;;10.44;100.00;97514.59;5043355;28;20199;-52
2023/10/05 04:52:45;;;;;;;4.40;3.77;;;;;;;10.43;100.00;97509.41;5042800;28;20631;-51
2023/10/05 04:55:18;;;;;;;4.30;3.57;;;;;;;10.39;100.00;97510.63;5043167;28;20242;-51
2023/10/05 04:57:52;;;;;;;4.13;3.63;;;;;;;10.36;100.00;97511.72;5043261;28;20208;-51
2023/10/05 05:03:48;;;;;;;4.40;3.30;;;;;;;10.42;100.00;97521.78;5020158;28;20227;-52
2023/10/05 05:06:14;;;;;;;3.70;3.40;;;;;;;10.47;100.00;97529.38;5042560;28;20203;-52
2023/10/05 05:08:41;;;;;;;3.50;3.20;;;;;;;10.52;100.00;97534.31;5042555;28;20644;-52
2023/10/05 05:11:18;;;;;;;4.33;3.50;;;;;;;10.53;100.00;97536.81;5042622;28;20291;-52
2023/10/05 05:13:46;;;;;;;4.07;3.53;;;;;;;10.53;100.00;97531.53;5042857;28;20253;-52
2023/10/05 05:16:14;;;;;;;3.83;3.47;;;;;;;10.49;100.00;97530.09;5042524;28;20212;-51
2023/10/05 05:18:42;;;;;;;6.70;3.67;;;;;;;10.44;100.00;97526.97;5041794;28;20220;-58
2023/10/05 05:21:08;;;;;;;3.97;3.63;;;;;;;10.47;100.00;97532.03;5044344;28;20357;-52
2023/10/05 05:23:35;;;;;;;5.47;3.67;;;;;;;10.51;100.00;97528.19;5042779;28;20227;-51
2023/10/05 05:26:03;;;;;;;4.30;3.70;;;;;;;10.54;100.00;97522.63;5042296;28;20282;-51
2023/10/05 05:28:34;;;;;;;4.90;3.90;;;;;;;10.48;100.00;97523.13;5042787;28;20338;-52
2023/10/05 05:31:06;;;;;;;4.13;3.60;;;;;;;10.49;100.00;97524.78;5041068;28;20195;-50
2023/10/05 05:33:33;;;;;;;4.63;3.80;;;;;;;10.53;100.00;97520.94;5040443;28;20196;-52
2023/10/05 05:36:05;;;;;;;5.27;3.60;;;;;;;10.49;100.00;97530.09;5040278;28;20298;-50
2023/10/05 05:38:33;;;;;;;4.10;3.70;;;;;;;10.48;100.00;97529.28;5041881;28;21351;-51
2023/10/05 05:40:59;;;;;;;4.43;3.37;;;;;;;10.49;100.00;97532.72;5042480;28;20532;-53
2023/10/05 05:43:29;;;;;;;6.40;3.90;;;;;;;10.51;100.00;97528.19;5042222;28;20222;-53
2023/10/05 05:45:58;;;;;;;4.60;3.67;;;;;;;10.55;100.00;97534.06;5041809;28;20294;-52
2023/10/05 05:48:24;;;;;;;7.37;3.97;;;;;;;10.51;100.00;97536.13;5041603;28;20573;-53
2023/10/05 05:50:53;;;;;;;5.77;4.10;;;;;;;10.49;100.00;97527.44;5041575;28;20203;-52
2023/10/05 05:53:19;;;;;;;4.70;4.07;;;;;;;10.53;100.00;97520.94;5041773;28;20278;-51
2023/10/05 05:55:52;;;;;;;5.83;4.10;;;;;;;10.56;100.00;97526.00;5042272;28;20199;-52
2023/10/05 05:58:19;;;;;;;6.37;4.00;;;;;;;10.50;100.00;97542.34;5041416;28;20225;-51
2023/10/05 06:00:46;;;;;;;8.67;4.37;;;;;;;10.57;100.00;97548.84;5041411;28;20235;-52
2023/10/05 06:03:16;;;;;;;5.10;4.60;;;;;;;10.63;100.00;97556.28;5041823;28;20268;-53
2023/10/05 06:05:42;;;;;;;8.50;4.93;;;;;;;10.71;100.00;97559.19;5041375;28;20226;-52
2023/10/05 06:08:11;;;;;;;7.07;4.27;;;;;;;10.75;100.00;97559.78;5041531;28;20270;-52
2023/10/05 06:10:37;;;;;;;5.23;4.43;;;;;;;10.77;100.00;97561.31;5041528;28;20211;-53
2023/10/05 06:13:06;;;;;;;8.17;4.67;;;;;;;10.71;100.00;97550.41;5041243;28;20616;-51
2023/10/05 06:15:34;;;;;;;5.53;4.23;;;;;;;10.69;100.00;97550.53;5041479;28;20222;-51
2023/10/05 06:18:01;;;;;;;5.43;4.10;;;;;;;10.67;100.00;97552.44;5041627;28;21378;-52
2023/10/05 06:20:29;;;;;;;8.50;4.57;;;;;;;10.67;100.00;97549.78;5040382;28;20245;-52
2023/10/05 06:22:55;;;;;;;6.10;4.50;;;;;;;10.69;100.00;97541.75;5041663;28;20564;-53
2023/10/05 06:25:22;;;;;;;6.93;4.40;;;;;;;10.78;100.00;97533.91;5041009;28;20208;-51
2023/10/05 06:27:48;;;;;;;7.10;4.33;;;;;;;10.87;100.00;97535.84;5041750;28;20203;-52
2023/10/05 06:30:15;;;;;;;5.80;4.20;;;;;;;10.93;100.00;97534.50;5041159;28;20203;-52
2023/10/05 06:32:43;;;;;;;5.83;4.70;;;;;;;10.94;100.00;97531.75;5041467;28;20216;-51
2023/10/05 06:35:11;;;;;;;7.20;4.40;;;;;;;11.02;100.00;97540.88;5040563;28;20621;-52
2023/10/05 06:37:39;;;;;;;5.30;4.23;;;;;;;11.11;100.00;97533.00;5041350;28;20252;-52
2023/10/05 06:40:10;;;;;;;5.87;4.87;;;;;;;11.22;100.00;97532.13;5041213;28;20196;-53
2023/10/05 06:42:37;;;;;;;5.07;4.40;;;;;;;11.27;100.00;97541.38;5041994;28;20195;-53
2023/10/05 06:45:07;;;;;;;4.57;4.17;;;;;;;11.35;100.00;97546.88;5040925;28;20592;-52
2023/10/05 06:47:38;;;;;;;8.20;4.77;;;;;;;11.48;100.00;97554.66;5041911;28;20350;-52
2023/10/05 06:50:08;;;;;;;6.47;4.90;;;;;;;11.56;100.00;97552.22;5040447;28;20204;-52
2023/10/05 06:52:39;;;;;;;6.40;5.10;;;;;;;11.69;100.00;97558.19;5041195;28;20195;-52
2023/10/05 06:55:08;;;;;;;6.30;4.80;;;;;;;11.79;100.00;97553.84;5041352;28;20294;-51
2023/10/05 06:57:36;;;;;;;4.67;4.27;;;;;;;11.94;100.00;97555.19;5041139;28;20204;-53
2023/10/05 07:00:11;;;;;;;6.90;4.73;;;;;;;11.96;100.00;97569.19;5041562;28;20235;-51
2023/10/05 07:02:39;;;;;;;10.17;4.60;;;;;;;11.96;100.00;97568.34;5041023;28;20227;-51
2023/10/05 07:05:06;;;;;;;5.70;4.57;;;;;;;12.08;100.00;97566.47;5040643;28;20612;-51
2023/10/05 07:07:33;;;;;;;8.03;4.37;;;;;;;12.25;100.00;97579.13;5040888;28;20269;-52
2023/10/05 07:09:59;;;;;;;6.03;4.60;;;;;;;12.30;100.00;97574.25;5040998;28;20226;-53
2023/10/05 07:12:27;;;;;;;5.30;4.80;;;;;;;12.32;100.00;97569.69;5040388;28;20237;-51
2023/10/05 07:14:56;;;;;;;7.87;4.93;;;;;;;12.37;100.00;97573.59;5041045;28;20191;-51
2023/10/05 07:17:22;;;;;;;6.43;5.00;;;;;;;12.47;100.00;97584.25;5040881;28;20558;-53
2023/10/05 07:19:49;;;;;;;8.40;5.90;;;;;;;12.51;100.00;97590.97;5040678;28;20207;-51
2023/10/05 07:22:16;;;;;;;10.10;5.57;;;;;;;12.46;100.00;97588.75;5040843;28;20703;-53
2023/10/05 07:24:43;;;;;;;7.90;5.63;;;;;;;12.47;100.00;97598.38;5042309;28;20255;-52
2023/10/05 07:27:09;;;;;;;6.73;5.50;;;;;;;12.47;100.00;97597.53;5042332;28;20277;-51
2023/10/05 07:29:37;;;;;;;8.43;5.03;;;;;;;12.56;100.00;97602.06;5041620;28;20208;-51
2023/10/05 07:32:06;;;;;;;11.07;5.80;;;;;;;12.68;100.00;97597.50;5042021;28;20204;-51
2023/10/05 07:34:34;;;;;;;23.40;8.90;;;;;;;12.81;100.00;97598.97;5045650;28;20263;-50
2023/10/05 07:37:01;;;;;;;8.83;5.97;;;;;;;12.87;100.00;97598.41;5046034;28;20295;-50
2023/10/05 07:39:28;;;;;;;22.43;12.17;;;;;;;13.08;100.00;97592.19;5045355;28;20293;-52
2023/10/05 07:41:55;;;;;;;11.17;5.60;;;;;;;13.15;100.00;97586.25;5044829;28;20208;-51
2023/10/05 07:44:21;;;;;;;9.50;5.20;;;;;;;13.26;100.00;97586.13;5044288;28;20223;-51
2023/10/05 07:46:49;;;;;;;6.17;5.07;;;;;;;13.35;100.00;97592.44;5044134;28;20200;-52
2023/10/05 07:49:15;;;;;;;5.30;4.70;;;;;;;13.44;100.00;97592.47;5043700;28;20204;-53
2023/10/05 07:51:42;;;;;;;5.60;5.07;;;;;;;13.53;100.00;97596.13;5044374;28;20298;-51
2023/10/05 07:54:09;;;;;;;5.97;4.90;;;;;;;13.56;100.00;97595.84;5043550;28;20200;-52
2023/10/05 07:56:35;;;;;;;7.03;4.87;;;;;;;13.65;100.00;97589.69;5044157;28;20207;-52
2023/10/05 07:59:02;;;;;;;6.70;5.23;;;;;;;13.84;100.00;97589.69;5044031;28;20701;-50
2023/10/05 08:01:28;;;;;;;5.87;5.10;;;;;;;13.95;100.00;97597.53;5042978;28;20647;-51
2023/10/05 08:03:57;;;;;;;7.07;5.43;;;;;;;13.98;100.00;97603.53;5042945;28;20673;-53
2023/10/05 08:06:25;;;;;;;11.43;5.07;;;;;;;14.07;100.00;97608.00;5043438;28;20265;-51
2023/10/05 08:08:53;;;;;;;10.90;5.47;;;;;;;14.13;100.00;97602.97;5043001;28;20230;-51
2023/10/05 08:11:20;;;;;;;8.77;5.63;;;;;;;14.17;100.00;97596.38;5043857;28;20208;-50
2023/10/05 08:13:47;;;;;;;5.83;5.23;;;;;;;14.31;100.00;97597.78;5043860;28;20202;-53
2023/10/05 08:16:13;;;;;;;5.97;4.80;;;;;;;14.40;100.00;97604.91;5043864;28;20204;-52
2023/10/05 08:18:41;;;;;;;6.97;5.00;;;;;;;14.54;100.00;97609.78;5042790;28;20534;-53
2023/10/05 08:21:09;;;;;;;7.65;5.60;;;;;;;14.64;100.00;97613.25;5043871;28;20207;-50
2023/10/05 08:23:36;;;;;;;9.45;5.40;;;;;;;14.75;100.00;97607.75;5043022;28;20219;-50
2023/10/05 08:26:04;;;;;;;5.68;5.00;;;;;;;14.88;100.00;97608.28;5043471;28;20195;-51
2023/10/05 08:28:31;;;;;;;6.68;4.72;;;;;;;15.00;100.00;97600.94;5043379;28;20207;-51
2023/10/05 08:31:05;;;;;;;6.05;4.82;;;;;;;15.14;100.00;97600.44;5043366;28;20204;-51
2023/10/05 08:33:33;;;;;;;7.50;4.95;;;;;;;15.25;100.00;97604.75;5042900;28;20206;-52
2023/10/05 08:36:00;;;;;;;7.35;4.72;;;;;;;15.42;100.00;97603.94;5043046;28;20199;-52
2023/10/05 08:38:28;;;;;;;8.25;5.50;;;;;;;15.46;100.00;97615.97;5043215;28;20199;-52
2023/10/05 08:40:55;;;;;;;16.23;5.25;;;;;;;15.49;100.00;97613.03;5043215;28;20211;-51
2023/10/05 08:43:21;;;;;;;19.65;6.03;;;;;;;15.42;100.00;97622.59;5042566;28;20215;-53
2023/10/05 08:45:51;;;;;;;5.80;5.03;;;;;;;15.47;100.00;97619.50;5043336;28;20207;-52
2023/10/05 08:48:22;;;;;;;8.38;4.95;;;;;;;15.49;100.00;97629.03;5042637;28;20703;-52
2023/10/05 08:50:52;;;;;;;16.85;5.28;;;;;;;15.64;100.00;97629.38;5042437;28;20556;-51
2023/10/05 08:53:21;;;;;;;7.72;5.10;;;;;;;15.80;100.00;97627.69;5042896;28;20515;-51
2023/10/05 08:55:51;;;;;;;7.40;5.18;;;;;;;15.91;100.00;97624.81;5042498;28;20199;-52
2023/10/05 08:58:20;;;;;;;7.53;5.03;;;;;;;16.10;100.00;97623.00;5043036;28;20303;-53
2023/10/05 09:00:47;;;;;;;7.38;4.68;;;;;;;16.25;100.00;97616.13;5042640;28;20290;-51
2023/10/05 09:03:29;;;;;;;6.32;4.75;;;;;;;16.32;100.00;97614.50;5042571;28;20199;-51
2023/10/05 09:06:13;;;;;;;6.38;4.57;;;;;;;16.40;100.00;97622.59;5042292;28;20312;-51
2023/10/05 09:08:51;;;;;;;5.70;4.40;;;;;;;16.72;100.00;97620.16;5042742;28;20195;-53
2023/10/05 09:11:21;;;;;;;7.88;4.93;;;;;;;16.75;97.19;97627.88;5042822;28;20210;-51
2023/10/05 09:13:47;;;;;;;6.95;5.03;;;;;;;16.73;95.34;97635.19;5042909;28;20191;-52
2023/10/05 09:16:22;;;;;;;5.32;4.53;;;;;;;16.96;97.13;97634.66;5043037;28;20212;-53
2023/10/05 09:18:49;;;;;;;6.60;4.95;;;;;;;17.13;95.15;97633.75;5042991;28;20215;-52
2023/10/05 09:21:19;;;;;;;8.32;4.85;;;;;;;17.26;94.03;97623.44;5043723;28;20238;-52
2023/10/05 09:23:46;;;;;;;9.48;4.68;;;;;;;17.34;96.45;97632.34;5043142;28;20223;-52
2023/10/05 09:26:33;;;;;;;5.07;4.30;;;;;;;17.54;96.94;97630.22;5043627;28;20208;-52
2023/10/05 09:29:20;;;;;;;6.85;4.93;;;;;;;17.48;96.18;97633.56;5044445;28;20206;-53
2023/10/05 09:31:50;;;;;;;5.82;4.80;;;;;;;17.49;96.12;97635.25;5043336;28;20210;-52
2023/10/05 09:34:17;;;;;;;6.45;5.03;;;;;;;17.55;93.82;97623.88;5042251;28;20732;-53
2023/10/05 09:36:44;;;;;;;8.10;4.82;;;;;;;17.42;95.53;97632.38;5042399;28;20202;-51
2023/10/05 09:39:14;;;;;;;7.32;4.30;;;;;;;17.76;96.91;97636.84;5043977;28;20206;-50
2023/10/05 09:41:43;;;;;;;7.70;5.38;;;;;;;18.08;95.60;97636.06;5041941;28;20203;-51
2023/10/05 09:44:15;;;;;;;10.90;5.10;;;;;;;18.14;94.71;97630.88;5042080;28;20233;-51
2023/10/05 09:46:43;;;;;;;10.07;5.03;;;;;;;17.99;92.85;97626.38;5041945;28;20203;-52
2023/10/05 09:49:14;;;;;;;7.50;5.40;;;;;;;17.80;91.71;97625.66;5041556;28;20226;-50
2023/10/05 09:51:43;;;;;;;5.60;4.80;;;;;;;18.09;93.59;97629.72;5041139;28;20574;-50
2023/10/05 09:54:10;;;;;;;8.45;5.00;;;;;;;17.88;91.23;97624.84;5042352;28;20579;-52
2023/10/05 09:56:39;;;;;;;8.40;4.32;;;;;;;17.86;92.57;97619.66;5041132;28;20253;-51
2023/10/05 09:59:15;;;;;;;9.35;6.43;;;;;;;17.78;92.17;97611.59;5041505;28;20568;-52
2023/10/05 10:01:43;;;;;;;7.00;5.20;;;;;;;17.78;91.94;97606.25;5041737;28;20298;-51
2023/10/05 10:04:10;;;;;;;7.32;4.90;;;;;;;17.96;92.46;97594.59;5041411;28;20235;-51
2023/10/05 10:06:37;;;;;;;8.50;5.30;;;;;;;18.08;91.35;97588.72;5041963;28;20627;-51
2023/10/05 10:09:09;;;;;;;7.65;5.20;;;;;;;18.06;92.00;97587.22;5041584;28;20206;-50
2023/10/05 10:11:36;;;;;;;6.13;4.80;;;;;;;18.14;93.11;97582.69;5042071;28;20546;-50
2023/10/05 10:14:05;;;;;;;5.07;4.55;;;;;;;18.28;90.32;97573.19;5041648;28;20191;-51
2023/10/05 10:16:39;;;;;;;5.75;4.13;;;;;;;18.59;90.57;97576.00;5041730;28;20246;-51
2023/10/05 10:19:08;;;;;;;9.27;5.15;;;;;;;18.62;91.13;97571.16;5041217;28;20817;-50
2023/10/05 10:21:41;;;;;;;7.03;4.97;;;;;;;18.39;88.42;97575.50;5041774;28;20211;-51
2023/10/05 10:24:09;;;;;;;7.22;5.20;;;;;;;18.34;89.30;97572.50;5040865;28;20211;-50
2023/10/05 10:26:40;;;;;;;5.93;4.65;;;;;;;18.65;90.60;97584.19;5041307;28;20211;-51
2023/10/05 10:29:11;;;;;;;6.82;4.55;;;;;;;19.02;91.50;97570.22;5040907;28;20214;-52
2023/10/05 10:31:47;;;;;;;6.28;5.38;;;;;;;19.12;87.90;97567.31;5041582;28;20226;-52
2023/10/05 10:34:20;;;;;;;6.15;4.47;;;;;;;19.54;88.41;97565.13;5041174;28;20198;-51
2023/10/05 10:36:52;;;;;;;7.03;5.30;;;;;;;19.60;89.33;97560.88;5041475;28;20508;-51
2023/10/05 10:39:27;;;;;;;8.25;4.78;;;;;;;19.68;86.84;97560.84;5042108;28;20219;-52
2023/10/05 10:42:03;;;;;;;10.10;6.00;;;;;;;19.55;84.72;97563.28;5041176;28;20203;-51
2023/10/05 10:44:41;;;;;;;8.13;5.20;;;;;;;19.47;86.72;97550.75;5041836;28;20207;-52
2023/10/05 10:47:11;;;;;;;9.05;5.18;;;;;;;19.56;88.24;97548.84;5041754;28;20662;-50
2023/10/05 10:49:40;;;;;;;6.88;4.97;;;;;;;19.80;85.44;97557.56;5040939;28;20207;-51
2023/10/05 10:52:09;;;;;;;5.65;5.05;;;;;;;20.21;83.00;97549.19;5042184;28;20211;-52
2023/10/05 10:54:38;;;;;;;7.43;5.13;;;;;;;20.41;82.36;97560.28;5041009;28;20485;-53
2023/10/05 10:57:06;;;;;;;6.57;5.50;;;;;;;20.41;81.23;97545.00;5043818;28;20203;-51
2023/10/05 10:59:41;;;;;;;5.85;4.72;;;;;;;20.62;82.10;97553.19;5043483;28;20296;-52
2023/10/05 11:02:12;;;;;;;6.03;5.43;;;;;;;21.28;76.65;97551.47;5043080;28;20195;-51
2023/10/05 11:04:39;;;;;;;5.85;4.57;;;;;;;21.87;75.15;97543.22;5040953;28;20706;-51
2023/10/05 11:07:06;;;;;;;5.25;4.75;;;;;;;22.01;74.18;97545.03;5042573;28;20720;-52
2023/10/05 11:09:37;;;;;;;7.32;5.03;;;;;;;22.38;72.58;97550.16;5045300;28;20234;-51
2023/10/05 11:12:11;;;;;;;8.00;5.45;;;;;;;22.87;72.58;97547.44;5045322;28;20647;-50
2023/10/05 11:14:45;;;;;;;7.03;4.82;;;;;;;23.60;69.46;97548.63;5045214;28;20257;-52
2023/10/05 11:17:28;;;;;;;5.18;4.68;;;;;;;23.90;65.56;97555.38;5051703;28;20200;-51
2023/10/05 11:19:55;;;;;;;5.75;5.10;;;;;;;24.28;65.13;97558.38;5051758;28;20222;-51
2023/10/05 11:22:25;;;;;;;5.60;4.95;;;;;;;24.42;65.45;97549.22;5049321;28;20200;-52
2023/10/05 11:25:15;;;;;;;6.15;5.07;;;;;;;24.13;65.00;97555.00;5045052;28;20231;-52
2023/10/05 11:27:44;;;;;;;5.07;4.57;;;;;;;24.64;62.72;97552.53;5045796;28;20239;-53
2023/10/05 11:30:18;;;;;;;5.57;4.97;;;;;;;24.45;59.11;97551.50;5047630;28;20533;-52
2023/10/05 11:32:46;;;;;;;4.90;4.40;;;;;;;24.25;64.52;97553.38;5047959;28;20268;-53
2023/10/05 11:35:14;;;;;;;5.68;4.28;;;;;;;23.79;63.79;97547.88;5046100;28;20629;-51
2023/10/05 11:37:44;;;;;;;6.15;5.20;;;;;;;23.30;62.99;97537.28;5045217;28;20242;-51
2023/10/05 11:40:19;;;;;;;6.63;4.82;;;;;;;22.23;68.90;97544.00;5045007;28;20214;-51